PWSweather.com
Personal Weather Stations
Station Observations
PICKERING
North Yorkshire, PickeringGB

North YorkshirePickeringGB

Lat: 54.2494, Lon: -0.7725

Elevation: 192

Station Type: Oregon Scientific WMR100

http://www.yorkshirewalker.co.uk/weather/

High Low Average
Temperature 40.5°F4.7°C 26.2°F-3.2°C 32.8°F0.4°C
Dew Point 35.6°F2.0°C 19.4°F-7.0°C 27.6°F-2.4°C
Winds 6.7 mph 10.8 kmh Calm Calm 3.0 mph NW4.8 kmh NW
Wind Gusts 12.8 mph20.6 kmh -- 6.0 mph9.7 kmh
Humidity 85% 77% 82%
Pressure 29.62 in1003.0 mb 29.03 in983.1 mb -
Precipitation 0.24 in6.1 mm - -
Hour Temp Dew Point Humidity Winds Wind Gusts Pressure Precip Precip Rate Daily Precip Total
12:00 AM 29.1°F-1.6°C 23.0°F-5.0°C 83% 0.3 mph NE0.5 kmh NE 1.3 mph2.1 kmh 29.03 in983.1 mb 0.00 in0.0 mm 0.00 in0.0 mm 0.00 in0.0 mm
12:05 AM 29.1°F-1.6°C 23.0°F-5.0°C 83% 0.4 mph N0.6 kmh N 1.3 mph2.1 kmh 29.03 in983.1 mb 0.00 in0.0 mm 0.00 in0.0 mm 0.00 in0.0 mm
12:10 AM 29.1°F-1.6°C 23.0°F-5.0°C 83% 0.5 mph N0.8 kmh N 1.3 mph2.1 kmh 29.03 in983.1 mb 0.00 in0.0 mm 0.00 in0.0 mm 0.00 in0.0 mm
12:15 AM 29.1°F-1.6°C 23.0°F-5.0°C 83% 0.6 mph NNW1.0 kmh NNW 1.6 mph2.6 kmh 29.06 in984.1 mb 0.00 in0.0 mm 0.00 in0.0 mm 0.00 in0.0 mm
12:20 AM 29.3°F-1.5°C 23.0°F-5.0°C 84% 0.9 mph N1.4 kmh N 1.6 mph2.6 kmh 29.06 in984.1 mb 0.00 in0.0 mm 0.00 in0.0 mm 0.00 in0.0 mm
12:25 AM 29.1°F-1.6°C 23.0°F-5.0°C 84% 0.6 mph N1.0 kmh N 1.3 mph2.1 kmh 29.06 in984.1 mb 0.00 in0.0 mm 0.00 in0.0 mm 0.00 in0.0 mm
12:30 AM 29.5°F-1.4°C 24.8°F-4.0°C 84% 0.8 mph N1.3 kmh N 2.9 mph4.7 kmh 29.06 in984.1 mb 0.00 in0.0 mm 0.00 in0.0 mm 0.00 in0.0 mm
12:35 AM 30.0°F-1.1°C 24.8°F-4.0°C 84% 1.6 mph N2.6 kmh N 3.6 mph5.8 kmh 29.06 in984.1 mb 0.00 in0.0 mm 0.00 in0.0 mm 0.00 in0.0 mm
12:40 AM 30.6°F-0.8°C 24.8°F-4.0°C 84% 2.1 mph N3.4 kmh N 3.6 mph5.8 kmh 29.06 in984.1 mb 0.00 in0.0 mm 0.00 in0.0 mm 0.00 in0.0 mm
12:45 AM 31.1°F-0.5°C 24.8°F-4.0°C 84% 2.3 mph NNE3.7 kmh NNE 4.3 mph6.9 kmh 29.06 in984.1 mb 0.00 in0.0 mm 0.00 in0.0 mm 0.00 in0.0 mm
12:50 AM 31.1°F-0.5°C 24.8°F-4.0°C 84% 2.0 mph NNE3.2 kmh NNE 4.3 mph6.9 kmh 29.06 in984.1 mb 0.00 in0.0 mm 0.00 in0.0 mm 0.00 in0.0 mm
12:55 AM 30.9°F-0.6°C 24.8°F-4.0°C 84% 1.1 mph N1.8 kmh N 2.9 mph4.7 kmh 29.06 in984.1 mb 0.00 in0.0 mm 0.00 in0.0 mm 0.00 in0.0 mm
01:00 AM 30.6°F-0.8°C 24.8°F-4.0°C 84% 0.5 mph NNW0.8 kmh NNW 1.6 mph2.6 kmh 29.06 in984.1 mb 0.00 in0.0 mm 0.00 in0.0 mm 0.00 in0.0 mm
01:05 AM 30.6°F-0.8°C 24.8°F-4.0°C 84% 0.9 mph NNW1.4 kmh NNW 1.6 mph2.6 kmh 29.06 in984.1 mb 0.00 in0.0 mm 0.00 in0.0 mm 0.00 in0.0 mm
01:10 AM 30.4°F-0.9°C 24.8°F-4.0°C 84% 1.6 mph NNW2.6 kmh NNW 4.3 mph6.9 kmh 29.06 in984.1 mb 0.00 in0.0 mm 0.00 in0.0 mm 0.00 in0.0 mm
01:15 AM 30.4°F-0.9°C 24.8°F-4.0°C 84% 1.7 mph N2.7 kmh N 4.3 mph6.9 kmh 29.06 in984.1 mb 0.00 in0.0 mm 0.00 in0.0 mm 0.00 in0.0 mm
01:20 AM 30.7°F-0.7°C 24.8°F-4.0°C 84% 1.6 mph NNE2.6 kmh NNE 2.7 mph4.3 kmh 29.06 in984.1 mb 0.00 in0.0 mm 0.00 in0.0 mm 0.00 in0.0 mm
01:25 AM 31.1°F-0.5°C 24.8°F-4.0°C 84% 2.1 mph NE3.4 kmh NE 3.1 mph5.0 kmh 29.06 in984.1 mb 0.00 in0.0 mm 0.00 in0.0 mm 0.00 in0.0 mm
01:30 AM 31.3°F-0.4°C 26.6°F-3.0°C 84% 2.4 mph NNE3.9 kmh NNE 4.0 mph6.4 kmh 29.06 in984.1 mb 0.00 in0.0 mm 0.00 in0.0 mm 0.00 in0.0 mm
01:35 AM 30.9°F-0.6°C 24.8°F-4.0°C 84% 2.1 mph NNE3.4 kmh NNE 4.0 mph6.4 kmh 29.06 in984.1 mb 0.00 in0.0 mm 0.00 in0.0 mm 0.00 in0.0 mm
01:40 AM 30.7°F-0.7°C 24.8°F-4.0°C 84% 1.4 mph NNE2.3 kmh NNE 2.7 mph4.3 kmh 29.06 in984.1 mb 0.00 in0.0 mm 0.00 in0.0 mm 0.00 in0.0 mm
01:45 AM 30.6°F-0.8°C 24.8°F-4.0°C 84% 0.6 mph NE1.0 kmh NE 1.6 mph2.6 kmh 29.06 in984.1 mb 0.00 in0.0 mm 0.00 in0.0 mm 0.00 in0.0 mm
01:50 AM 30.4°F-0.9°C 24.8°F-4.0°C 84% 0.6 mph NE1.0 kmh NE 1.6 mph2.6 kmh 29.06 in984.1 mb 0.00 in0.0 mm 0.00 in0.0 mm 0.00 in0.0 mm
01:55 AM 30.2°F-1.0°C 24.8°F-4.0°C 84% 1.3 mph N2.1 kmh N 2.5 mph4.0 kmh 29.06 in984.1 mb 0.00 in0.0 mm 0.00 in0.0 mm 0.00 in0.0 mm
02:00 AM 30.6°F-0.8°C 24.8°F-4.0°C 84% 2.2 mph NNW3.5 kmh NNW 3.8 mph6.1 kmh 29.06 in984.1 mb 0.00 in0.0 mm 0.00 in0.0 mm 0.00 in0.0 mm
02:05 AM 30.7°F-0.7°C 24.8°F-4.0°C 84% 2.5 mph NNW4.0 kmh NNW 3.8 mph6.1 kmh 29.06 in984.1 mb 0.00 in0.0 mm 0.00 in0.0 mm 0.00 in0.0 mm
02:10 AM 31.3°F-0.4°C 26.6°F-3.0°C 84% 2.5 mph N4.0 kmh N 3.4 mph5.5 kmh 29.06 in984.1 mb 0.00 in0.0 mm 0.00 in0.0 mm 0.00 in0.0 mm
02:15 AM 32.0°F0.0°C 26.6°F-3.0°C 84% 3.1 mph N5.0 kmh N 3.8 mph6.1 kmh 29.06 in984.1 mb 0.00 in0.0 mm 0.00 in0.0 mm 0.00 in0.0 mm
02:20 AM 32.0°F0.0°C 26.6°F-3.0°C 84% 3.2 mph N5.1 kmh N 3.8 mph6.1 kmh 29.06 in984.1 mb 0.00 in0.0 mm 0.00 in0.0 mm 0.00 in0.0 mm
02:25 AM 32.0°F0.0°C 26.6°F-3.0°C 84% 2.9 mph N4.7 kmh N 4.0 mph6.4 kmh 29.06 in984.1 mb 0.00 in0.0 mm 0.00 in0.0 mm 0.00 in0.0 mm
02:30 AM 32.0°F0.0°C 26.6°F-3.0°C 84% 3.1 mph NNW5.0 kmh NNW 4.7 mph7.6 kmh 29.06 in984.1 mb 0.00 in0.0 mm 0.00 in0.0 mm 0.00 in0.0 mm
02:35 AM 32.2°F0.1°C 28.4°F-2.0°C 84% 3.8 mph NW6.1 kmh NW 5.8 mph9.3 kmh 29.06 in984.1 mb 0.00 in0.0 mm 0.00 in0.0 mm 0.00 in0.0 mm
02:40 AM 32.2°F0.1°C 28.4°F-2.0°C 84% 4.0 mph NW6.4 kmh NW 5.8 mph9.3 kmh 29.06 in984.1 mb 0.00 in0.0 mm 0.00 in0.0 mm 0.00 in0.0 mm
02:45 AM 32.0°F0.0°C 26.6°F-3.0°C 84% 3.5 mph NW5.6 kmh NW 5.8 mph9.3 kmh 29.09 in985.1 mb 0.00 in0.0 mm 0.00 in0.0 mm 0.00 in0.0 mm
02:50 AM 32.0°F0.0°C 26.6°F-3.0°C 84% 2.5 mph NW4.0 kmh NW 4.0 mph6.4 kmh 29.09 in985.1 mb 0.00 in0.0 mm 0.00 in0.0 mm 0.00 in0.0 mm
02:55 AM 31.8°F-0.1°C 26.6°F-3.0°C 84% 2.3 mph NW3.7 kmh NW 4.3 mph6.9 kmh 29.09 in985.1 mb 0.00 in0.0 mm 0.00 in0.0 mm 0.00 in0.0 mm
03:00 AM 31.8°F-0.1°C 26.6°F-3.0°C 84% 2.7 mph NW4.3 kmh NW 4.3 mph6.9 kmh 29.09 in985.1 mb 0.00 in0.0 mm 0.00 in0.0 mm 0.00 in0.0 mm
03:05 AM 31.8°F-0.1°C 26.6°F-3.0°C 84% 2.5 mph NW4.0 kmh NW 4.0 mph6.4 kmh 29.09 in985.1 mb 0.00 in0.0 mm 0.00 in0.0 mm 0.00 in0.0 mm
03:10 AM 31.8°F-0.1°C 26.6°F-3.0°C 84% 2.4 mph NNW3.9 kmh NNW 4.3 mph6.9 kmh 29.09 in985.1 mb 0.00 in0.0 mm 0.00 in0.0 mm 0.00 in0.0 mm
03:15 AM 31.5°F-0.3°C 26.6°F-3.0°C 84% 2.8 mph NNW4.5 kmh NNW 4.3 mph6.9 kmh 29.06 in984.1 mb 0.00 in0.0 mm 0.00 in0.0 mm 0.00 in0.0 mm
03:20 AM 31.6°F-0.2°C 26.6°F-3.0°C 84% 3.6 mph N5.8 kmh N 5.6 mph9.0 kmh 29.06 in984.1 mb 0.00 in0.0 mm 0.00 in0.0 mm 0.00 in0.0 mm
03:25 AM 31.6°F-0.2°C 26.6°F-3.0°C 84% 3.8 mph N6.1 kmh N 5.6 mph9.0 kmh 29.06 in984.1 mb 0.00 in0.0 mm 0.00 in0.0 mm 0.00 in0.0 mm
03:30 AM 31.6°F-0.2°C 26.6°F-3.0°C 84% 3.1 mph N5.0 kmh N 5.4 mph8.7 kmh 29.06 in984.1 mb 0.00 in0.0 mm 0.00 in0.0 mm 0.00 in0.0 mm
03:35 AM 31.6°F-0.2°C 26.6°F-3.0°C 84% 2.3 mph NW3.7 kmh NW 3.1 mph5.0 kmh 29.06 in984.1 mb 0.00 in0.0 mm 0.00 in0.0 mm 0.00 in0.0 mm
03:40 AM 31.5°F-0.3°C 26.6°F-3.0°C 84% 2.5 mph NW4.0 kmh NW 3.6 mph5.8 kmh 29.06 in984.1 mb 0.00 in0.0 mm 0.00 in0.0 mm 0.00 in0.0 mm
03:45 AM 31.5°F-0.3°C 26.6°F-3.0°C 84% 2.2 mph NNW3.5 kmh NNW 3.6 mph5.8 kmh 29.09 in985.1 mb 0.00 in0.0 mm 0.00 in0.0 mm 0.00 in0.0 mm
03:50 AM 31.5°F-0.3°C 26.6°F-3.0°C 84% 1.6 mph NNW2.6 kmh NNW 2.9 mph4.7 kmh 29.09 in985.1 mb 0.00 in0.0 mm 0.00 in0.0 mm 0.00 in0.0 mm
03:55 AM 31.3°F-0.4°C 26.6°F-3.0°C 84% 1.9 mph NNW3.1 kmh NNW 2.7 mph4.3 kmh 29.09 in985.1 mb 0.00 in0.0 mm 0.00 in0.0 mm 0.00 in0.0 mm
04:00 AM 31.1°F-0.5°C 24.8°F-4.0°C 84% 2.1 mph N3.4 kmh N 6.5 mph10.5 kmh 29.09 in985.1 mb 0.00 in0.0 mm 0.00 in0.0 mm 0.00 in0.0 mm
04:05 AM 31.1°F-0.5°C 24.8°F-4.0°C 84% 2.5 mph N4.0 kmh N 6.5 mph10.5 kmh 29.09 in985.1 mb 0.00 in0.0 mm 0.00 in0.0 mm 0.00 in0.0 mm
04:10 AM 31.1°F-0.5°C 24.8°F-4.0°C 84% 2.7 mph NNW4.3 kmh NNW 6.5 mph10.5 kmh 29.09 in985.1 mb 0.00 in0.0 mm 0.00 in0.0 mm 0.00 in0.0 mm
04:15 AM 31.3°F-0.4°C 26.6°F-3.0°C 84% 2.9 mph N4.7 kmh N 5.6 mph9.0 kmh 29.09 in985.1 mb 0.00 in0.0 mm 0.00 in0.0 mm 0.00 in0.0 mm
04:20 AM 31.6°F-0.2°C 26.6°F-3.0°C 84% 3.6 mph NNW5.8 kmh NNW 6.5 mph10.5 kmh 29.09 in985.1 mb 0.00 in0.0 mm 0.00 in0.0 mm 0.00 in0.0 mm
04:25 AM 31.6°F-0.2°C 26.6°F-3.0°C 84% 3.8 mph NNW6.1 kmh NNW 7.8 mph12.6 kmh 29.09 in985.1 mb 0.00 in0.0 mm 0.00 in0.0 mm 0.00 in0.0 mm
04:30 AM 31.6°F-0.2°C 26.6°F-3.0°C 84% 3.9 mph NNW6.3 kmh NNW 7.8 mph12.6 kmh 29.09 in985.1 mb 0.00 in0.0 mm 0.00 in0.0 mm 0.00 in0.0 mm
04:35 AM 31.6°F-0.2°C 26.6°F-3.0°C 84% 2.9 mph NNW4.7 kmh NNW 6.9 mph11.1 kmh 29.09 in985.1 mb 0.00 in0.0 mm 0.00 in0.0 mm 0.00 in0.0 mm
04:40 AM 31.8°F-0.1°C 26.6°F-3.0°C 84% 2.4 mph N3.9 kmh N 4.9 mph7.9 kmh 29.09 in985.1 mb 0.00 in0.0 mm 0.00 in0.0 mm 0.00 in0.0 mm
04:45 AM 32.0°F0.0°C 26.6°F-3.0°C 84% 2.9 mph NNW4.7 kmh NNW 4.9 mph7.9 kmh 29.09 in985.1 mb 0.00 in0.0 mm 0.00 in0.0 mm 0.00 in0.0 mm
04:50 AM 32.0°F0.0°C 26.6°F-3.0°C 85% 3.8 mph NW6.1 kmh NW 8.1 mph13.0 kmh 29.09 in985.1 mb 0.00 in0.0 mm 0.00 in0.0 mm 0.00 in0.0 mm
04:55 AM 32.5°F0.3°C 28.4°F-2.0°C 84% 4.8 mph NW7.7 kmh NW 8.1 mph13.0 kmh 29.09 in985.1 mb 0.00 in0.0 mm 0.00 in0.0 mm 0.00 in0.0 mm
05:00 AM 32.4°F0.2°C 28.4°F-2.0°C 84% 4.8 mph NW7.7 kmh NW 8.1 mph13.0 kmh 29.12 in986.1 mb 0.00 in0.0 mm 0.00 in0.0 mm 0.00 in0.0 mm
05:05 AM 32.5°F0.3°C 28.4°F-2.0°C 84% 3.6 mph NNW5.8 kmh NNW 5.8 mph9.3 kmh 29.12 in986.1 mb 0.00 in0.0 mm 0.00 in0.0 mm 0.00 in0.0 mm
05:10 AM 32.4°F0.2°C 28.4°F-2.0°C 84% 3.2 mph NNW5.1 kmh NNW 6.0 mph9.7 kmh 29.12 in986.1 mb 0.00 in0.0 mm 0.00 in0.0 mm 0.00 in0.0 mm
05:15 AM 32.2°F0.1°C 28.4°F-2.0°C 84% 3.6 mph NNW5.8 kmh NNW 8.1 mph13.0 kmh 29.09 in985.1 mb 0.00 in0.0 mm 0.00 in0.0 mm 0.00 in0.0 mm
05:20 AM 32.0°F0.0°C 26.6°F-3.0°C 84% 3.5 mph NNW5.6 kmh NNW 8.1 mph13.0 kmh 29.09 in985.1 mb 0.00 in0.0 mm 0.00 in0.0 mm 0.00 in0.0 mm
05:25 AM 32.0°F0.0°C 26.6°F-3.0°C 84% 3.6 mph NNW5.8 kmh NNW 6.0 mph9.7 kmh 29.09 in985.1 mb 0.00 in0.0 mm 0.00 in0.0 mm 0.00 in0.0 mm
05:30 AM 31.8°F-0.1°C 26.6°F-3.0°C 84% 3.1 mph NNW5.0 kmh NNW 6.0 mph9.7 kmh 29.12 in986.1 mb 0.00 in0.0 mm 0.00 in0.0 mm 0.00 in0.0 mm
05:35 AM 31.8°F-0.1°C 26.6°F-3.0°C 84% 2.8 mph NW4.5 kmh NW 4.9 mph7.9 kmh 29.12 in986.1 mb 0.00 in0.0 mm 0.00 in0.0 mm 0.00 in0.0 mm
05:40 AM 31.6°F-0.2°C 26.6°F-3.0°C 84% 4.0 mph NNW6.4 kmh NNW 8.7 mph14.0 kmh 29.12 in986.1 mb 0.00 in0.0 mm 0.00 in0.0 mm 0.00 in0.0 mm
05:55 AM 31.6°F-0.2°C 26.6°F-3.0°C 84% 5.4 mph NW8.7 kmh NW 11.0 mph17.7 kmh 29.12 in986.1 mb 0.00 in0.0 mm 0.00 in0.0 mm 0.00 in0.0 mm
06:00 AM 31.6°F-0.2°C 26.6°F-3.0°C 84% 6.0 mph NW9.7 kmh NW 11.0 mph17.7 kmh 29.12 in986.1 mb 0.00 in0.0 mm 0.00 in0.0 mm 0.00 in0.0 mm
06:05 AM 31.3°F-0.4°C 26.6°F-3.0°C 84% 5.0 mph WNW8.0 kmh WNW 8.9 mph14.3 kmh 29.12 in986.1 mb 0.00 in0.0 mm 0.00 in0.0 mm 0.00 in0.0 mm
06:10 AM 31.5°F-0.3°C 26.6°F-3.0°C 84% 3.8 mph NW6.1 kmh NW 7.6 mph12.2 kmh 29.12 in986.1 mb 0.00 in0.0 mm 0.00 in0.0 mm 0.00 in0.0 mm
06:15 AM 31.5°F-0.3°C 26.6°F-3.0°C 84% 3.2 mph N5.1 kmh N 6.3 mph10.1 kmh 29.12 in986.1 mb 0.00 in0.0 mm 0.00 in0.0 mm 0.00 in0.0 mm
06:20 AM 31.3°F-0.4°C 26.6°F-3.0°C 84% 2.7 mph N4.3 kmh N 5.8 mph9.3 kmh 29.12 in986.1 mb 0.00 in0.0 mm 0.00 in0.0 mm 0.00 in0.0 mm
06:25 AM 31.5°F-0.3°C 26.6°F-3.0°C 84% 2.4 mph NNW3.9 kmh NNW 4.7 mph7.6 kmh 29.12 in986.1 mb 0.00 in0.0 mm 0.00 in0.0 mm 0.00 in0.0 mm
06:30 AM 30.9°F-0.6°C 24.8°F-4.0°C 84% 2.5 mph NNW4.0 kmh NNW 4.7 mph7.6 kmh 29.12 in986.1 mb 0.00 in0.0 mm 0.00 in0.0 mm 0.00 in0.0 mm
06:35 AM 30.9°F-0.6°C 24.8°F-4.0°C 84% 2.2 mph NNW3.5 kmh NNW 4.3 mph6.9 kmh 29.12 in986.1 mb 0.00 in0.0 mm 0.00 in0.0 mm 0.00 in0.0 mm
06:40 AM 31.1°F-0.5°C 24.8°F-4.0°C 84% 2.6 mph NW4.2 kmh NW 6.7 mph10.8 kmh 29.12 in986.1 mb 0.00 in0.0 mm 0.00 in0.0 mm 0.00 in0.0 mm
06:45 AM 31.3°F-0.4°C 26.6°F-3.0°C 84% 3.6 mph NNW5.8 kmh NNW 6.7 mph10.8 kmh 29.12 in986.1 mb 0.00 in0.0 mm 0.00 in0.0 mm 0.00 in0.0 mm
06:50 AM 31.5°F-0.3°C 26.6°F-3.0°C 84% 4.3 mph NNW6.9 kmh NNW 7.4 mph11.9 kmh 29.12 in986.1 mb 0.00 in0.0 mm 0.00 in0.0 mm 0.00 in0.0 mm
06:55 AM 31.6°F-0.2°C 26.6°F-3.0°C 84% 4.2 mph NW6.8 kmh NW 7.4 mph11.9 kmh 29.12 in986.1 mb 0.00 in0.0 mm 0.00 in0.0 mm 0.00 in0.0 mm
07:00 AM 31.6°F-0.2°C 26.6°F-3.0°C 84% 4.7 mph NW7.6 kmh NW 6.0 mph9.7 kmh 29.12 in986.1 mb 0.00 in0.0 mm 0.00 in0.0 mm 0.00 in0.0 mm
07:05 AM 31.5°F-0.3°C 26.6°F-3.0°C 84% 4.8 mph NW7.7 kmh NW 7.4 mph11.9 kmh 29.12 in986.1 mb 0.00 in0.0 mm 0.00 in0.0 mm 0.00 in0.0 mm
07:10 AM 31.5°F-0.3°C 26.6°F-3.0°C 84% 5.0 mph NW8.0 kmh NW 9.2 mph14.8 kmh 29.12 in986.1 mb 0.00 in0.0 mm 0.00 in0.0 mm 0.00 in0.0 mm
07:15 AM 31.5°F-0.3°C 26.6°F-3.0°C 84% 5.4 mph NW8.7 kmh NW 9.2 mph14.8 kmh 29.15 in987.1 mb 0.00 in0.0 mm 0.00 in0.0 mm 0.00 in0.0 mm
07:20 AM 31.5°F-0.3°C 26.6°F-3.0°C 84% 4.7 mph NW7.6 kmh NW 7.8 mph12.6 kmh 29.15 in987.1 mb 0.00 in0.0 mm 0.00 in0.0 mm 0.00 in0.0 mm
07:25 AM 31.5°F-0.3°C 26.6°F-3.0°C 84% 4.2 mph NW6.8 kmh NW 7.2 mph11.6 kmh 29.15 in987.1 mb 0.00 in0.0 mm 0.00 in0.0 mm 0.00 in0.0 mm
07:30 AM 31.5°F-0.3°C 26.6°F-3.0°C 84% 3.5 mph NW5.6 kmh NW 7.2 mph11.6 kmh 29.15 in987.1 mb 0.00 in0.0 mm 0.00 in0.0 mm 0.00 in0.0 mm
07:35 AM 31.5°F-0.3°C 26.6°F-3.0°C 84% 3.2 mph NW5.1 kmh NW 7.6 mph12.2 kmh 29.15 in987.1 mb 0.00 in0.0 mm 0.00 in0.0 mm 0.00 in0.0 mm
07:40 AM 31.3°F-0.4°C 26.6°F-3.0°C 84% 4.6 mph NNW7.4 kmh NNW 7.6 mph12.2 kmh 29.15 in987.1 mb 0.00 in0.0 mm 0.00 in0.0 mm 0.00 in0.0 mm
07:45 AM 31.5°F-0.3°C 26.6°F-3.0°C 84% 5.1 mph NNW8.2 kmh NNW 8.1 mph13.0 kmh 29.15 in987.1 mb 0.00 in0.0 mm 0.00 in0.0 mm 0.00 in0.0 mm
07:50 AM 31.6°F-0.2°C 26.6°F-3.0°C 84% 5.1 mph NW8.2 kmh NW 8.1 mph13.0 kmh 29.15 in987.1 mb 0.00 in0.0 mm 0.00 in0.0 mm 0.00 in0.0 mm
07:55 AM 32.0°F0.0°C 26.6°F-3.0°C 84% 6.1 mph NW9.8 kmh NW 8.1 mph13.0 kmh 29.15 in987.1 mb 0.00 in0.0 mm 0.00 in0.0 mm 0.00 in0.0 mm
08:00 AM 32.2°F0.1°C 28.4°F-2.0°C 84% 6.1 mph NNW9.8 kmh NNW 8.5 mph13.7 kmh 29.18 in988.1 mb 0.00 in0.0 mm 0.00 in0.0 mm 0.00 in0.0 mm
08:05 AM 32.2°F0.1°C 28.4°F-2.0°C 84% 4.9 mph NNW7.9 kmh NNW 8.5 mph13.7 kmh 29.18 in988.1 mb 0.00 in0.0 mm 0.00 in0.0 mm 0.00 in0.0 mm
08:10 AM 32.2°F0.1°C 28.4°F-2.0°C 84% 3.6 mph NW5.8 kmh NW 5.8 mph9.3 kmh 29.18 in988.1 mb 0.00 in0.0 mm 0.00 in0.0 mm 0.00 in0.0 mm
08:15 AM 32.2°F0.1°C 28.4°F-2.0°C 84% 3.2 mph NW5.1 kmh NW 5.8 mph9.3 kmh 29.18 in988.1 mb 0.00 in0.0 mm 0.00 in0.0 mm 0.00 in0.0 mm
08:20 AM 32.4°F0.2°C 28.4°F-2.0°C 84% 3.2 mph NW5.1 kmh NW 8.7 mph14.0 kmh 29.18 in988.1 mb 0.00 in0.0 mm 0.00 in0.0 mm 0.00 in0.0 mm
08:25 AM 32.4°F0.2°C 28.4°F-2.0°C 84% 4.3 mph NW6.9 kmh NW 8.7 mph14.0 kmh 29.18 in988.1 mb 0.00 in0.0 mm 0.00 in0.0 mm 0.00 in0.0 mm
08:30 AM 32.5°F0.3°C 28.4°F-2.0°C 84% 5.3 mph NW8.5 kmh NW 8.9 mph14.3 kmh 29.21 in989.2 mb 0.00 in0.0 mm 0.00 in0.0 mm 0.00 in0.0 mm
08:35 AM 32.5°F0.3°C 28.4°F-2.0°C 84% 4.5 mph NW7.2 kmh NW 8.9 mph14.3 kmh 29.21 in989.2 mb 0.00 in0.0 mm 0.00 in0.0 mm 0.00 in0.0 mm
08:40 AM 32.5°F0.3°C 28.4°F-2.0°C 84% 3.2 mph NNW5.1 kmh NNW 4.7 mph7.6 kmh 29.21 in989.2 mb 0.00 in0.0 mm 0.00 in0.0 mm 0.00 in0.0 mm
08:45 AM 32.5°F0.3°C 28.4°F-2.0°C 84% 2.7 mph NW4.3 kmh NW 3.6 mph5.8 kmh 29.21 in989.2 mb 0.00 in0.0 mm 0.00 in0.0 mm 0.00 in0.0 mm
08:50 AM 32.5°F0.3°C 28.4°F-2.0°C 84% 3.3 mph WNW5.3 kmh WNW 8.1 mph13.0 kmh 29.21 in989.2 mb 0.00 in0.0 mm 0.00 in0.0 mm 0.00 in0.0 mm
08:55 AM 32.7°F0.4°C 28.4°F-2.0°C 84% 3.7 mph NW6.0 kmh NW 8.1 mph13.0 kmh 29.21 in989.2 mb 0.00 in0.0 mm 0.00 in0.0 mm 0.00 in0.0 mm
09:00 AM 32.7°F0.4°C 28.4°F-2.0°C 84% 4.4 mph NNW7.1 kmh NNW 7.4 mph11.9 kmh 29.21 in989.2 mb 0.00 in0.0 mm 0.00 in0.0 mm 0.00 in0.0 mm
09:05 AM 32.9°F0.5°C 30.2°F-1.0°C 84% 4.5 mph NNW7.2 kmh NNW 7.4 mph11.9 kmh 29.21 in989.2 mb 0.00 in0.0 mm 0.00 in0.0 mm 0.00 in0.0 mm
09:10 AM 32.9°F0.5°C 30.2°F-1.0°C 84% 3.7 mph NW6.0 kmh NW 6.0 mph9.7 kmh 29.21 in989.2 mb 0.00 in0.0 mm 0.00 in0.0 mm 0.00 in0.0 mm
09:15 AM 33.1°F0.6°C 30.2°F-1.0°C 84% 3.6 mph NW5.8 kmh NW 7.2 mph11.6 kmh 29.24 in990.2 mb 0.00 in0.0 mm 0.00 in0.0 mm 0.00 in0.0 mm
09:20 AM 33.1°F0.6°C 30.2°F-1.0°C 84% 4.9 mph NW7.9 kmh NW 8.1 mph13.0 kmh 29.24 in990.2 mb 0.00 in0.0 mm 0.00 in0.0 mm 0.00 in0.0 mm
09:25 AM 32.9°F0.5°C 30.2°F-1.0°C 84% 5.8 mph NNW9.3 kmh NNW 8.1 mph13.0 kmh 29.24 in990.2 mb 0.00 in0.0 mm 0.00 in0.0 mm 0.00 in0.0 mm
09:30 AM 33.3°F0.7°C 30.2°F-1.0°C 84% 6.1 mph NNW9.8 kmh NNW 8.5 mph13.7 kmh 29.24 in990.2 mb 0.00 in0.0 mm 0.00 in0.0 mm 0.00 in0.0 mm
09:35 AM 33.3°F0.7°C 30.2°F-1.0°C 84% 4.5 mph NNW7.2 kmh NNW 8.5 mph13.7 kmh 29.24 in990.2 mb 0.00 in0.0 mm 0.00 in0.0 mm 0.00 in0.0 mm
09:40 AM 33.4°F0.8°C 30.2°F-1.0°C 84% 3.9 mph NW6.3 kmh NW 8.5 mph13.7 kmh 29.24 in990.2 mb 0.00 in0.0 mm 0.00 in0.0 mm 0.00 in0.0 mm
09:45 AM 33.4°F0.8°C 30.2°F-1.0°C 84% 4.1 mph NW6.6 kmh NW 8.5 mph13.7 kmh 29.24 in990.2 mb 0.00 in0.0 mm 0.00 in0.0 mm 0.00 in0.0 mm
09:50 AM 33.4°F0.8°C 30.2°F-1.0°C 84% 5.3 mph NW8.5 kmh NW 8.5 mph13.7 kmh 29.24 in990.2 mb 0.00 in0.0 mm 0.00 in0.0 mm 0.00 in0.0 mm
09:55 AM 33.8°F1.0°C 30.2°F-1.0°C 84% 5.6 mph NNW9.0 kmh NNW 8.1 mph13.0 kmh 29.24 in990.2 mb 0.00 in0.0 mm 0.00 in0.0 mm 0.00 in0.0 mm
10:00 AM 34.0°F1.1°C 30.2°F-1.0°C 84% 4.3 mph NW6.9 kmh NW 8.1 mph13.0 kmh 29.15 in987.1 mb 0.00 in0.0 mm 0.00 in0.0 mm 0.00 in0.0 mm
10:05 AM 34.5°F1.4°C 30.2°F-1.0°C 84% 3.9 mph NW6.3 kmh NW 6.0 mph9.7 kmh 29.15 in987.1 mb 0.00 in0.0 mm 0.00 in0.0 mm 0.00 in0.0 mm
10:10 AM 34.3°F1.3°C 30.2°F-1.0°C 84% 3.4 mph NW5.5 kmh NW 6.0 mph9.7 kmh 29.15 in987.1 mb 0.00 in0.0 mm 0.00 in0.0 mm 0.00 in0.0 mm
10:15 AM 34.3°F1.3°C 30.2°F-1.0°C 84% 2.7 mph NNW4.3 kmh NNW 3.6 mph5.8 kmh 29.18 in988.1 mb 0.00 in0.0 mm 0.00 in0.0 mm 0.00 in0.0 mm
10:20 AM 34.2°F1.2°C 30.2°F-1.0°C 84% 3.2 mph NW5.1 kmh NW 6.3 mph10.1 kmh 29.18 in988.1 mb 0.00 in0.0 mm 0.00 in0.0 mm 0.00 in0.0 mm
10:25 AM 34.2°F1.2°C 30.2°F-1.0°C 84% 4.0 mph NW6.4 kmh NW 6.3 mph10.1 kmh 29.18 in988.1 mb 0.00 in0.0 mm 0.00 in0.0 mm 0.00 in0.0 mm
10:30 AM 34.2°F1.2°C 30.2°F-1.0°C 84% 4.3 mph NW6.9 kmh NW 6.3 mph10.1 kmh 29.27 in991.2 mb 0.00 in0.0 mm 0.00 in0.0 mm 0.00 in0.0 mm
10:35 AM 34.2°F1.2°C 30.2°F-1.0°C 84% 4.3 mph NW6.9 kmh NW 6.9 mph11.1 kmh 29.27 in991.2 mb 0.00 in0.0 mm 0.00 in0.0 mm 0.00 in0.0 mm
10:40 AM 34.2°F1.2°C 30.2°F-1.0°C 84% 4.7 mph NW7.6 kmh NW 9.8 mph15.8 kmh 29.27 in991.2 mb 0.00 in0.0 mm 0.00 in0.0 mm 0.00 in0.0 mm
10:45 AM 34.0°F1.1°C 30.2°F-1.0°C 84% 4.1 mph NNW6.6 kmh NNW 9.8 mph15.8 kmh 29.27 in991.2 mb 0.00 in0.0 mm 0.00 in0.0 mm 0.00 in0.0 mm
10:50 AM 34.0°F1.1°C 30.2°F-1.0°C 84% 3.8 mph NNW6.1 kmh NNW 7.6 mph12.2 kmh 29.27 in991.2 mb 0.00 in0.0 mm 0.00 in0.0 mm 0.00 in0.0 mm
10:55 AM 34.0°F1.1°C 30.2°F-1.0°C 84% 4.0 mph NNW6.4 kmh NNW 7.8 mph12.6 kmh 29.27 in991.2 mb 0.00 in0.0 mm 0.00 in0.0 mm 0.00 in0.0 mm
11:00 AM 34.2°F1.2°C 30.2°F-1.0°C 84% 4.2 mph NNW6.8 kmh NNW 7.8 mph12.6 kmh 29.30 in992.2 mb 0.00 in0.0 mm 0.00 in0.0 mm 0.00 in0.0 mm
11:05 AM 34.5°F1.4°C 30.2°F-1.0°C 84% 4.0 mph NNW6.4 kmh NNW 7.4 mph11.9 kmh 29.30 in992.2 mb 0.00 in0.0 mm 0.00 in0.0 mm 0.00 in0.0 mm
11:10 AM 34.7°F1.5°C 30.2°F-1.0°C 84% 4.2 mph NNW6.8 kmh NNW 5.8 mph9.3 kmh 29.30 in992.2 mb 0.00 in0.0 mm 0.00 in0.0 mm 0.00 in0.0 mm
11:15 AM 34.9°F1.6°C 30.2°F-1.0°C 84% 3.9 mph NNW6.3 kmh NNW 5.8 mph9.3 kmh 29.30 in992.2 mb 0.00 in0.0 mm 0.00 in0.0 mm 0.00 in0.0 mm
11:20 AM 35.6°F2.0°C 32.0°F0.0°C 84% 4.1 mph NNW6.6 kmh NNW 7.8 mph12.6 kmh 29.30 in992.2 mb 0.00 in0.0 mm 0.00 in0.0 mm 0.00 in0.0 mm
11:25 AM 37.0°F2.8°C 33.8°F1.0°C 83% 4.3 mph NW6.9 kmh NW 7.8 mph12.6 kmh 29.30 in992.2 mb 0.00 in0.0 mm 0.00 in0.0 mm 0.00 in0.0 mm
11:30 AM 37.8°F3.2°C 33.8°F1.0°C 83% 5.1 mph NW8.2 kmh NW 9.6 mph15.4 kmh 29.30 in992.2 mb 0.00 in0.0 mm 0.00 in0.0 mm 0.00 in0.0 mm
11:35 AM 37.8°F3.2°C 33.8°F1.0°C 82% 5.2 mph NNW8.4 kmh NNW 9.6 mph15.4 kmh 29.30 in992.2 mb 0.00 in0.0 mm 0.00 in0.0 mm 0.00 in0.0 mm
11:40 AM 36.7°F2.6°C 32.0°F0.0°C 82% 4.0 mph N6.4 kmh N 6.9 mph11.1 kmh 29.30 in992.2 mb 0.00 in0.0 mm 0.00 in0.0 mm 0.00 in0.0 mm
11:45 AM 35.8°F2.1°C 32.0°F0.0°C 82% 4.2 mph NNW6.8 kmh NNW 7.8 mph12.6 kmh 29.27 in991.2 mb 0.00 in0.0 mm 0.00 in0.0 mm 0.00 in0.0 mm
11:50 AM 35.6°F2.0°C 32.0°F0.0°C 83% 5.4 mph NNW8.7 kmh NNW 12.8 mph20.6 kmh 29.27 in991.2 mb 0.00 in0.0 mm 0.00 in0.0 mm 0.00 in0.0 mm
11:55 AM 35.2°F1.8°C 30.2°F-1.0°C 83% 5.1 mph NNW8.2 kmh NNW 12.8 mph20.6 kmh 29.27 in991.2 mb 0.00 in0.0 mm 0.00 in0.0 mm 0.00 in0.0 mm
12:00 PM 35.2°F1.8°C 30.2°F-1.0°C 83% 4.4 mph NNW7.1 kmh NNW 12.8 mph20.6 kmh 29.30 in992.2 mb 0.00 in0.0 mm 0.00 in0.0 mm 0.00 in0.0 mm
12:05 PM 35.2°F1.8°C 30.2°F-1.0°C 83% 3.0 mph NNW4.8 kmh NNW 6.0 mph9.7 kmh 29.30 in992.2 mb 0.00 in0.0 mm 0.00 in0.0 mm 0.00 in0.0 mm
12:10 PM 35.2°F1.8°C 30.2°F-1.0°C 83% 3.8 mph NNW6.1 kmh NNW 7.6 mph12.2 kmh 29.30 in992.2 mb 0.00 in0.0 mm 0.00 in0.0 mm 0.00 in0.0 mm
12:15 PM 35.2°F1.8°C 30.2°F-1.0°C 83% 3.8 mph NNW6.1 kmh NNW 7.6 mph12.2 kmh 29.30 in992.2 mb 0.00 in0.0 mm 0.00 in0.0 mm 0.00 in0.0 mm
12:20 PM 35.2°F1.8°C 30.2°F-1.0°C 83% 3.4 mph NW5.5 kmh NW 5.4 mph8.7 kmh 29.30 in992.2 mb 0.00 in0.0 mm 0.00 in0.0 mm 0.00 in0.0 mm
12:25 PM 35.1°F1.7°C 30.2°F-1.0°C 83% 3.1 mph NNW5.0 kmh NNW 4.7 mph7.6 kmh 29.30 in992.2 mb 0.00 in0.0 mm 0.00 in0.0 mm 0.00 in0.0 mm
12:30 PM 35.2°F1.8°C 30.2°F-1.0°C 83% 3.1 mph NW5.0 kmh NW 6.3 mph10.1 kmh 29.33 in993.2 mb 0.00 in0.0 mm 0.00 in0.0 mm 0.00 in0.0 mm
12:35 PM 36.7°F2.6°C 32.0°F0.0°C 83% 2.7 mph NNW4.3 kmh NNW 6.3 mph10.1 kmh 29.33 in993.2 mb 0.00 in0.0 mm 0.00 in0.0 mm 0.00 in0.0 mm
12:40 PM 38.3°F3.5°C 33.8°F1.0°C 83% 3.4 mph NW5.5 kmh NW 7.8 mph12.6 kmh 29.33 in993.2 mb 0.00 in0.0 mm 0.00 in0.0 mm 0.00 in0.0 mm
12:45 PM 38.1°F3.4°C 33.8°F1.0°C 82% 4.9 mph NW7.9 kmh NW 7.8 mph12.6 kmh 29.33 in993.2 mb 0.00 in0.0 mm 0.00 in0.0 mm 0.00 in0.0 mm
12:50 PM 38.7°F3.7°C 33.8°F1.0°C 81% 4.5 mph NW7.2 kmh NW 7.6 mph12.2 kmh 29.33 in993.2 mb 0.00 in0.0 mm 0.00 in0.0 mm 0.00 in0.0 mm
12:55 PM 40.5°F4.7°C 35.6°F2.0°C 81% 4.0 mph NW6.4 kmh NW 6.0 mph9.7 kmh 29.33 in993.2 mb 0.00 in0.0 mm 0.00 in0.0 mm 0.00 in0.0 mm
01:00 PM 40.3°F4.6°C 35.6°F2.0°C 81% 4.4 mph NW7.1 kmh NW 11.2 mph18.0 kmh 29.33 in993.2 mb 0.00 in0.0 mm 0.00 in0.0 mm 0.00 in0.0 mm
01:05 PM 38.5°F3.6°C 33.8°F1.0°C 80% 5.2 mph NW8.4 kmh NW 11.2 mph18.0 kmh 29.33 in993.2 mb 0.00 in0.0 mm 0.00 in0.0 mm 0.00 in0.0 mm
01:10 PM 39.9°F4.4°C 33.8°F1.0°C 81% 5.6 mph NW9.0 kmh NW 9.8 mph15.8 kmh 29.33 in993.2 mb 0.00 in0.0 mm 0.00 in0.0 mm 0.00 in0.0 mm
01:15 PM 39.6°F4.2°C 33.8°F1.0°C 80% 5.4 mph NW8.7 kmh NW 8.7 mph14.0 kmh 29.33 in993.2 mb 0.00 in0.0 mm 0.00 in0.0 mm 0.00 in0.0 mm
01:20 PM 40.3°F4.6°C 35.6°F2.0°C 80% 4.5 mph NW7.2 kmh NW 7.6 mph12.2 kmh 29.33 in993.2 mb 0.00 in0.0 mm 0.00 in0.0 mm 0.00 in0.0 mm
01:25 PM 38.7°F3.7°C 33.8°F1.0°C 80% 5.6 mph NW9.0 kmh NW 9.4 mph15.1 kmh 29.33 in993.2 mb 0.00 in0.0 mm 0.00 in0.0 mm 0.00 in0.0 mm
01:30 PM 38.1°F3.4°C 33.8°F1.0°C 80% 6.1 mph NW9.8 kmh NW 9.4 mph15.1 kmh 29.33 in993.2 mb 0.00 in0.0 mm 0.00 in0.0 mm 0.00 in0.0 mm
01:35 PM 38.1°F3.4°C 33.8°F1.0°C 80% 5.0 mph NW8.0 kmh NW 9.4 mph15.1 kmh 29.33 in993.2 mb 0.00 in0.0 mm 0.00 in0.0 mm 0.00 in0.0 mm
01:40 PM 38.3°F3.5°C 33.8°F1.0°C 80% 4.4 mph NW7.1 kmh NW 7.8 mph12.6 kmh 29.33 in993.2 mb 0.00 in0.0 mm 0.00 in0.0 mm 0.00 in0.0 mm
01:45 PM 38.7°F3.7°C 33.8°F1.0°C 80% 5.2 mph NW8.4 kmh NW 7.8 mph12.6 kmh 29.30 in992.2 mb 0.00 in0.0 mm 0.00 in0.0 mm 0.00 in0.0 mm
01:50 PM 38.7°F3.7°C 33.8°F1.0°C 80% 4.4 mph NW7.1 kmh NW 7.8 mph12.6 kmh 29.30 in992.2 mb 0.00 in0.0 mm 0.00 in0.0 mm 0.00 in0.0 mm
01:55 PM 38.7°F3.7°C 33.8°F1.0°C 80% 5.0 mph NW8.0 kmh NW 9.6 mph15.4 kmh 29.30 in992.2 mb 0.00 in0.0 mm 0.00 in0.0 mm 0.00 in0.0 mm
02:00 PM 39.0°F3.9°C 33.8°F1.0°C 79% 6.7 mph NW10.8 kmh NW 10.1 mph16.3 kmh 29.33 in993.2 mb 0.00 in0.0 mm 0.00 in0.0 mm 0.00 in0.0 mm
02:05 PM 37.8°F3.2°C 32.0°F0.0°C 79% 6.2 mph NW10.0 kmh NW 10.3 mph16.6 kmh 29.33 in993.2 mb 0.00 in0.0 mm 0.00 in0.0 mm 0.00 in0.0 mm
02:10 PM 37.2°F2.9°C 32.0°F0.0°C 80% 5.1 mph NW8.2 kmh NW 10.3 mph16.6 kmh 29.33 in993.2 mb 0.00 in0.0 mm 0.00 in0.0 mm 0.00 in0.0 mm
02:15 PM 37.4°F3.0°C 32.0°F0.0°C 80% 3.6 mph WNW5.8 kmh WNW 6.0 mph9.7 kmh 29.33 in993.2 mb 0.11 in2.8 mm 1.32 in33.5 mm 0.11 in2.8 mm
02:20 PM 37.9°F3.3°C 33.8°F1.0°C 80% 4.0 mph NW6.4 kmh NW 6.5 mph10.5 kmh 29.33 in993.2 mb 0.11 in2.8 mm 0.00 in0.0 mm 0.11 in2.8 mm
02:25 PM 37.8°F3.2°C 33.8°F1.0°C 80% 5.0 mph NW8.0 kmh NW 6.5 mph10.5 kmh 29.33 in993.2 mb 0.11 in2.8 mm 0.00 in0.0 mm 0.11 in2.8 mm
02:30 PM 37.2°F2.9°C 32.0°F0.0°C 80% 5.3 mph NW8.5 kmh NW 8.9 mph14.3 kmh 29.33 in993.2 mb 0.11 in2.8 mm 0.00 in0.0 mm 0.11 in2.8 mm
02:35 PM 37.2°F2.9°C 32.0°F0.0°C 80% 5.4 mph NW8.7 kmh NW 8.9 mph14.3 kmh 29.33 in993.2 mb 0.11 in2.8 mm 0.00 in0.0 mm 0.11 in2.8 mm
02:40 PM 37.6°F3.1°C 32.0°F0.0°C 80% 5.1 mph NW8.2 kmh NW 7.4 mph11.9 kmh 29.33 in993.2 mb 0.11 in2.8 mm 0.00 in0.0 mm 0.11 in2.8 mm
02:45 PM 37.2°F2.9°C 32.0°F0.0°C 80% 5.2 mph NW8.4 kmh NW 6.9 mph11.1 kmh 29.36 in994.2 mb 0.11 in2.8 mm 0.00 in0.0 mm 0.11 in2.8 mm
02:50 PM 36.9°F2.7°C 32.0°F0.0°C 80% 5.8 mph NW9.3 kmh NW 9.8 mph15.8 kmh 29.36 in994.2 mb 0.11 in2.8 mm 0.00 in0.0 mm 0.11 in2.8 mm
02:55 PM 36.7°F2.6°C 32.0°F0.0°C 80% 4.7 mph N7.6 kmh N 9.8 mph15.8 kmh 29.36 in994.2 mb 0.11 in2.8 mm 0.00 in0.0 mm 0.11 in2.8 mm
03:00 PM 36.7°F2.6°C 32.0°F0.0°C 81% 4.1 mph N6.6 kmh N 6.0 mph9.7 kmh 29.36 in994.2 mb 0.11 in2.8 mm 0.00 in0.0 mm 0.11 in2.8 mm
03:05 PM 37.0°F2.8°C 32.0°F0.0°C 81% 3.4 mph NNW5.5 kmh NNW 6.0 mph9.7 kmh 29.36 in994.2 mb 0.11 in2.8 mm 0.00 in0.0 mm 0.11 in2.8 mm
03:10 PM 37.0°F2.8°C 32.0°F0.0°C 81% 2.9 mph NW4.7 kmh NW 5.8 mph9.3 kmh 29.36 in994.2 mb 0.11 in2.8 mm 0.00 in0.0 mm 0.11 in2.8 mm
03:15 PM 36.9°F2.7°C 32.0°F0.0°C 81% 4.8 mph NW7.7 kmh NW 10.7 mph17.2 kmh 29.36 in994.2 mb 0.00 in0.0 mm 0.00 in0.0 mm 0.11 in2.8 mm
03:20 PM 37.0°F2.8°C 32.0°F0.0°C 81% 6.0 mph NNW9.7 kmh NNW 10.7 mph17.2 kmh 29.36 in994.2 mb 0.00 in0.0 mm 0.00 in0.0 mm 0.11 in2.8 mm
03:25 PM 36.5°F2.5°C 32.0°F0.0°C 81% 5.3 mph NW8.5 kmh NW 11.9 mph19.2 kmh 29.36 in994.2 mb 0.00 in0.0 mm 0.00 in0.0 mm 0.11 in2.8 mm
03:30 PM 36.0°F2.2°C 30.2°F-1.0°C 81% 5.1 mph NW8.2 kmh NW 11.9 mph19.2 kmh 29.36 in994.2 mb 0.00 in0.0 mm 0.00 in0.0 mm 0.11 in2.8 mm
03:35 PM 36.1°F2.3°C 32.0°F0.0°C 82% 5.2 mph NNW8.4 kmh NNW 7.8 mph12.6 kmh 29.36 in994.2 mb 0.00 in0.0 mm 0.00 in0.0 mm 0.11 in2.8 mm
03:40 PM 36.1°F2.3°C 32.0°F0.0°C 81% 4.3 mph NW6.9 kmh NW 7.4 mph11.9 kmh 29.36 in994.2 mb 0.00 in0.0 mm 0.00 in0.0 mm 0.11 in2.8 mm
03:45 PM 36.0°F2.2°C 30.2°F-1.0°C 81% 4.5 mph NW7.2 kmh NW 8.1 mph13.0 kmh 29.39 in995.3 mb 0.00 in0.0 mm 0.00 in0.0 mm 0.11 in2.8 mm
03:50 PM 36.0°F2.2°C 32.0°F0.0°C 82% 4.0 mph NW6.4 kmh NW 8.1 mph13.0 kmh 29.39 in995.3 mb 0.00 in0.0 mm 0.00 in0.0 mm 0.11 in2.8 mm
03:55 PM 36.0°F2.2°C 32.0°F0.0°C 82% 3.3 mph NW5.3 kmh NW 6.9 mph11.1 kmh 29.39 in995.3 mb 0.00 in0.0 mm 0.00 in0.0 mm 0.11 in2.8 mm
04:00 PM 35.6°F2.0°C 32.0°F0.0°C 82% 3.4 mph NW5.5 kmh NW 8.1 mph13.0 kmh 29.39 in995.3 mb 0.00 in0.0 mm 0.00 in0.0 mm 0.11 in2.8 mm
04:05 PM 35.4°F1.9°C 30.2°F-1.0°C 82% 4.9 mph NW7.9 kmh NW 9.8 mph15.8 kmh 29.39 in995.3 mb 0.00 in0.0 mm 0.00 in0.0 mm 0.11 in2.8 mm
04:10 PM 35.2°F1.8°C 30.2°F-1.0°C 82% 5.2 mph NW8.4 kmh NW 9.8 mph15.8 kmh 29.39 in995.3 mb 0.00 in0.0 mm 0.00 in0.0 mm 0.11 in2.8 mm
04:15 PM 35.2°F1.8°C 30.2°F-1.0°C 82% 2.8 mph NW4.5 kmh NW 8.1 mph13.0 kmh 29.39 in995.3 mb 0.00 in0.0 mm 0.00 in0.0 mm 0.11 in2.8 mm
04:20 PM 35.1°F1.7°C 30.2°F-1.0°C 82% 2.6 mph W4.2 kmh W 4.9 mph7.9 kmh 29.39 in995.3 mb 0.00 in0.0 mm 0.00 in0.0 mm 0.11 in2.8 mm
04:25 PM 35.1°F1.7°C 30.2°F-1.0°C 82% 3.0 mph W4.8 kmh W 4.9 mph7.9 kmh 29.39 in995.3 mb 0.00 in0.0 mm 0.00 in0.0 mm 0.11 in2.8 mm
04:30 PM 34.9°F1.6°C 30.2°F-1.0°C 82% 3.5 mph WNW5.6 kmh WNW 5.6 mph9.0 kmh 29.41 in995.9 mb 0.00 in0.0 mm 0.00 in0.0 mm 0.11 in2.8 mm
04:35 PM 34.9°F1.6°C 30.2°F-1.0°C 82% 3.5 mph NW5.6 kmh NW 5.6 mph9.0 kmh 29.41 in995.9 mb 0.00 in0.0 mm 0.00 in0.0 mm 0.11 in2.8 mm
04:40 PM 34.7°F1.5°C 30.2°F-1.0°C 82% 2.4 mph NW3.9 kmh NW 4.7 mph7.6 kmh 29.41 in995.9 mb 0.00 in0.0 mm 0.00 in0.0 mm 0.11 in2.8 mm
04:45 PM 34.5°F1.4°C 30.2°F-1.0°C 82% 2.7 mph NW4.3 kmh NW 6.3 mph10.1 kmh 29.41 in995.9 mb 0.00 in0.0 mm 0.00 in0.0 mm 0.11 in2.8 mm
04:50 PM 34.5°F1.4°C 30.2°F-1.0°C 82% 2.5 mph NNW4.0 kmh NNW 6.3 mph10.1 kmh 29.41 in995.9 mb 0.13 in3.3 mm 1.56 in39.6 mm 0.24 in6.1 mm
04:55 PM 34.5°F1.4°C 30.2°F-1.0°C 82% 1.5 mph N2.4 kmh N 3.4 mph5.5 kmh 29.41 in995.9 mb 0.13 in3.3 mm 0.00 in0.0 mm 0.24 in6.1 mm
05:00 PM 34.5°F1.4°C 30.2°F-1.0°C 82% 1.2 mph NNW1.9 kmh NNW 2.5 mph4.0 kmh 29.39 in995.3 mb 0.13 in3.3 mm 0.00 in0.0 mm 0.24 in6.1 mm
05:05 PM 34.5°F1.4°C 30.2°F-1.0°C 83% 0.9 mph NW1.4 kmh NW 2.5 mph4.0 kmh 29.39 in995.3 mb 0.13 in3.3 mm 0.00 in0.0 mm 0.24 in6.1 mm
05:10 PM 34.5°F1.4°C 30.2°F-1.0°C 83% 2.0 mph NW3.2 kmh NW 6.5 mph10.5 kmh 29.39 in995.3 mb 0.13 in3.3 mm 0.00 in0.0 mm 0.24 in6.1 mm
05:15 PM 34.5°F1.4°C 30.2°F-1.0°C 83% 3.3 mph NW5.3 kmh NW 7.4 mph11.9 kmh 29.41 in995.9 mb 0.13 in3.3 mm 0.00 in0.0 mm 0.24 in6.1 mm
05:20 PM 34.3°F1.3°C 30.2°F-1.0°C 82% 3.8 mph NW6.1 kmh NW 7.6 mph12.2 kmh 29.41 in995.9 mb 0.13 in3.3 mm 0.00 in0.0 mm 0.24 in6.1 mm
05:25 PM 34.2°F1.2°C 30.2°F-1.0°C 82% 3.5 mph NW5.6 kmh NW 7.6 mph12.2 kmh 29.41 in995.9 mb 0.13 in3.3 mm 0.00 in0.0 mm 0.24 in6.1 mm
05:30 PM 34.2°F1.2°C 30.2°F-1.0°C 82% 3.3 mph NW5.3 kmh NW 5.4 mph8.7 kmh 29.41 in995.9 mb 0.13 in3.3 mm 0.00 in0.0 mm 0.24 in6.1 mm
05:35 PM 34.2°F1.2°C 30.2°F-1.0°C 83% 2.7 mph NW4.3 kmh NW 5.4 mph8.7 kmh 29.41 in995.9 mb 0.13 in3.3 mm 0.00 in0.0 mm 0.24 in6.1 mm
05:40 PM 34.2°F1.2°C 30.2°F-1.0°C 83% 2.3 mph NW3.7 kmh NW 4.7 mph7.6 kmh 29.41 in995.9 mb 0.13 in3.3 mm 0.00 in0.0 mm 0.24 in6.1 mm
05:45 PM 34.2°F1.2°C 30.2°F-1.0°C 83% 2.6 mph WNW4.2 kmh WNW 7.2 mph11.6 kmh 29.45 in997.3 mb 0.13 in3.3 mm 0.00 in0.0 mm 0.24 in6.1 mm
05:50 PM 34.2°F1.2°C 30.2°F-1.0°C 83% 2.6 mph W4.2 kmh W 7.2 mph11.6 kmh 29.45 in997.3 mb 0.00 in0.0 mm 0.00 in0.0 mm 0.24 in6.1 mm
05:55 PM 34.2°F1.2°C 30.2°F-1.0°C 83% 2.7 mph WSW4.3 kmh WSW 4.7 mph7.6 kmh 29.45 in997.3 mb 0.00 in0.0 mm 0.00 in0.0 mm 0.24 in6.1 mm
06:00 PM 34.0°F1.1°C 30.2°F-1.0°C 83% 2.7 mph W4.3 kmh W 4.0 mph6.4 kmh 29.45 in997.3 mb 0.00 in0.0 mm 0.00 in0.0 mm 0.24 in6.1 mm
06:05 PM 33.8°F1.0°C 30.2°F-1.0°C 83% 3.5 mph WNW5.6 kmh WNW 7.4 mph11.9 kmh 29.45 in997.3 mb 0.00 in0.0 mm 0.00 in0.0 mm 0.24 in6.1 mm
06:10 PM 33.6°F0.9°C 30.2°F-1.0°C 83% 3.4 mph NW5.5 kmh NW 7.4 mph11.9 kmh 29.45 in997.3 mb 0.00 in0.0 mm 0.00 in0.0 mm 0.24 in6.1 mm
06:15 PM 33.4°F0.8°C 30.2°F-1.0°C 83% 2.7 mph NW4.3 kmh NW 5.6 mph9.0 kmh 29.45 in997.3 mb 0.00 in0.0 mm 0.00 in0.0 mm 0.24 in6.1 mm
06:20 PM 33.3°F0.7°C 28.4°F-2.0°C 83% 3.2 mph NW5.1 kmh NW 5.6 mph9.0 kmh 29.45 in997.3 mb 0.00 in0.0 mm 0.00 in0.0 mm 0.24 in6.1 mm
06:25 PM 33.1°F0.6°C 28.4°F-2.0°C 83% 3.2 mph NW5.1 kmh NW 6.5 mph10.5 kmh 29.45 in997.3 mb 0.00 in0.0 mm 0.00 in0.0 mm 0.24 in6.1 mm
06:30 PM 32.7°F0.4°C 28.4°F-2.0°C 83% 2.5 mph NW4.0 kmh NW 6.5 mph10.5 kmh 29.45 in997.3 mb 0.00 in0.0 mm 0.00 in0.0 mm 0.24 in6.1 mm
06:35 PM 32.5°F0.3°C 28.4°F-2.0°C 83% 1.7 mph WSW2.7 kmh WSW 4.0 mph6.4 kmh 29.45 in997.3 mb 0.00 in0.0 mm 0.00 in0.0 mm 0.24 in6.1 mm
06:40 PM 32.5°F0.3°C 28.4°F-2.0°C 83% 1.4 mph W2.3 kmh W 2.7 mph4.3 kmh 29.45 in997.3 mb 0.00 in0.0 mm 0.00 in0.0 mm 0.24 in6.1 mm
06:45 PM 32.7°F0.4°C 28.4°F-2.0°C 83% 2.4 mph NW3.9 kmh NW 5.8 mph9.3 kmh 29.45 in997.3 mb 0.00 in0.0 mm 0.00 in0.0 mm 0.24 in6.1 mm
06:50 PM 32.5°F0.3°C 28.4°F-2.0°C 82% 2.6 mph NW4.2 kmh NW 5.8 mph9.3 kmh 29.45 in997.3 mb 0.00 in0.0 mm 0.00 in0.0 mm 0.24 in6.1 mm
06:55 PM 32.4°F0.2°C 28.4°F-2.0°C 82% 2.7 mph NW4.3 kmh NW 5.6 mph9.0 kmh 29.45 in997.3 mb 0.00 in0.0 mm 0.00 in0.0 mm 0.24 in6.1 mm
07:00 PM 32.5°F0.3°C 28.4°F-2.0°C 82% 3.6 mph NW5.8 kmh NW 5.6 mph9.0 kmh 29.45 in997.3 mb 0.00 in0.0 mm 0.00 in0.0 mm 0.24 in6.1 mm
07:05 PM 32.4°F0.2°C 28.4°F-2.0°C 82% 3.5 mph NW5.6 kmh NW 5.6 mph9.0 kmh 29.45 in997.3 mb 0.00 in0.0 mm 0.00 in0.0 mm 0.24 in6.1 mm
07:10 PM 32.4°F0.2°C 28.4°F-2.0°C 82% 4.0 mph NW6.4 kmh NW 7.4 mph11.9 kmh 29.45 in997.3 mb 0.00 in0.0 mm 0.00 in0.0 mm 0.24 in6.1 mm
07:15 PM 32.4°F0.2°C 28.4°F-2.0°C 82% 4.2 mph NW6.8 kmh NW 7.4 mph11.9 kmh 29.47 in998.0 mb 0.00 in0.0 mm 0.00 in0.0 mm 0.24 in6.1 mm
07:20 PM 32.2°F0.1°C 26.6°F-3.0°C 81% 3.4 mph NW5.5 kmh NW 5.4 mph8.7 kmh 29.47 in998.0 mb 0.00 in0.0 mm 0.00 in0.0 mm 0.24 in6.1 mm
07:25 PM 32.0°F0.0°C 24.8°F-4.0°C 81% 2.5 mph NW4.0 kmh NW 4.3 mph6.9 kmh 29.47 in998.0 mb 0.00 in0.0 mm 0.00 in0.0 mm 0.24 in6.1 mm
07:30 PM 32.0°F0.0°C 26.6°F-3.0°C 82% 2.1 mph NW3.4 kmh NW 4.0 mph6.4 kmh 29.47 in998.0 mb 0.00 in0.0 mm 0.00 in0.0 mm 0.24 in6.1 mm
07:35 PM 31.8°F-0.1°C 26.6°F-3.0°C 82% 1.7 mph NW2.7 kmh NW 3.4 mph5.5 kmh 29.47 in998.0 mb 0.00 in0.0 mm 0.00 in0.0 mm 0.24 in6.1 mm
07:40 PM 31.8°F-0.1°C 26.6°F-3.0°C 82% 1.9 mph NNW3.1 kmh NNW 6.0 mph9.7 kmh 29.47 in998.0 mb 0.00 in0.0 mm 0.00 in0.0 mm 0.24 in6.1 mm
07:45 PM 31.8°F-0.1°C 24.8°F-4.0°C 81% 2.9 mph NW4.7 kmh NW 6.3 mph10.1 kmh 29.47 in998.0 mb 0.00 in0.0 mm 0.00 in0.0 mm 0.24 in6.1 mm
07:50 PM 31.8°F-0.1°C 24.8°F-4.0°C 81% 3.5 mph NW5.6 kmh NW 8.5 mph13.7 kmh 29.47 in998.0 mb 0.00 in0.0 mm 0.00 in0.0 mm 0.24 in6.1 mm
07:55 PM 31.6°F-0.2°C 24.8°F-4.0°C 81% 3.4 mph NW5.5 kmh NW 8.5 mph13.7 kmh 29.47 in998.0 mb 0.00 in0.0 mm 0.00 in0.0 mm 0.24 in6.1 mm
08:00 PM 31.6°F-0.2°C 24.8°F-4.0°C 80% 3.2 mph WNW5.1 kmh WNW 6.0 mph9.7 kmh 29.50 in999.0 mb 0.00 in0.0 mm 0.00 in0.0 mm 0.24 in6.1 mm
08:05 PM 31.6°F-0.2°C 24.8°F-4.0°C 80% 4.0 mph NW6.4 kmh NW 8.1 mph13.0 kmh 29.50 in999.0 mb 0.00 in0.0 mm 0.00 in0.0 mm 0.24 in6.1 mm
08:10 PM 31.5°F-0.3°C 24.8°F-4.0°C 80% 4.3 mph NW6.9 kmh NW 8.1 mph13.0 kmh 29.50 in999.0 mb 0.00 in0.0 mm 0.00 in0.0 mm 0.24 in6.1 mm
08:15 PM 31.1°F-0.5°C 24.8°F-4.0°C 80% 2.5 mph NW4.0 kmh NW 6.0 mph9.7 kmh 29.50 in999.0 mb 0.00 in0.0 mm 0.00 in0.0 mm 0.24 in6.1 mm
08:20 PM 31.1°F-0.5°C 24.8°F-4.0°C 80% 1.9 mph NW3.1 kmh NW 4.7 mph7.6 kmh 29.50 in999.0 mb 0.00 in0.0 mm 0.00 in0.0 mm 0.24 in6.1 mm
08:25 PM 31.1°F-0.5°C 24.8°F-4.0°C 80% 3.0 mph WNW4.8 kmh WNW 4.9 mph7.9 kmh 29.50 in999.0 mb 0.00 in0.0 mm 0.00 in0.0 mm 0.24 in6.1 mm
08:30 PM 30.9°F-0.6°C 23.0°F-5.0°C 79% 3.9 mph W6.3 kmh W 6.5 mph10.5 kmh 29.50 in999.0 mb 0.00 in0.0 mm 0.00 in0.0 mm 0.24 in6.1 mm
08:35 PM 31.1°F-0.5°C 23.0°F-5.0°C 79% 4.3 mph WNW6.9 kmh WNW 6.5 mph10.5 kmh 29.50 in999.0 mb 0.00 in0.0 mm 0.00 in0.0 mm 0.24 in6.1 mm
08:40 PM 30.9°F-0.6°C 23.0°F-5.0°C 79% 4.3 mph NW6.9 kmh NW 6.0 mph9.7 kmh 29.50 in999.0 mb 0.00 in0.0 mm 0.00 in0.0 mm 0.24 in6.1 mm
08:45 PM 30.7°F-0.7°C 23.0°F-5.0°C 79% 4.0 mph NW6.4 kmh NW 5.6 mph9.0 kmh 29.50 in999.0 mb 0.00 in0.0 mm 0.00 in0.0 mm 0.24 in6.1 mm
08:50 PM 30.7°F-0.7°C 23.0°F-5.0°C 79% 4.7 mph NW7.6 kmh NW 8.7 mph14.0 kmh 29.50 in999.0 mb 0.00 in0.0 mm 0.00 in0.0 mm 0.24 in6.1 mm
08:55 PM 30.6°F-0.8°C 23.0°F-5.0°C 79% 4.8 mph NW7.7 kmh NW 8.7 mph14.0 kmh 29.50 in999.0 mb 0.00 in0.0 mm 0.00 in0.0 mm 0.24 in6.1 mm
09:00 PM 30.6°F-0.8°C 23.0°F-5.0°C 78% 3.7 mph NW6.0 kmh NW 6.5 mph10.5 kmh 29.50 in999.0 mb 0.00 in0.0 mm 0.00 in0.0 mm 0.24 in6.1 mm
09:05 PM 30.6°F-0.8°C 23.0°F-5.0°C 78% 3.9 mph NW6.3 kmh NW 5.8 mph9.3 kmh 29.50 in999.0 mb 0.00 in0.0 mm 0.00 in0.0 mm 0.24 in6.1 mm
09:10 PM 30.4°F-0.9°C 23.0°F-5.0°C 78% 3.7 mph NW6.0 kmh NW 5.8 mph9.3 kmh 29.50 in999.0 mb 0.00 in0.0 mm 0.00 in0.0 mm 0.24 in6.1 mm
09:15 PM 30.4°F-0.9°C 23.0°F-5.0°C 78% 3.8 mph NW6.1 kmh NW 8.1 mph13.0 kmh 29.56 in1001.0 mb 0.00 in0.0 mm 0.00 in0.0 mm 0.24 in6.1 mm
09:20 PM 30.4°F-0.9°C 23.0°F-5.0°C 78% 3.8 mph NNW6.1 kmh NNW 8.1 mph13.0 kmh 29.56 in1001.0 mb 0.00 in0.0 mm 0.00 in0.0 mm 0.24 in6.1 mm
09:25 PM 30.4°F-0.9°C 23.0°F-5.0°C 78% 3.7 mph NW6.0 kmh NW 8.1 mph13.0 kmh 29.56 in1001.0 mb 0.00 in0.0 mm 0.00 in0.0 mm 0.24 in6.1 mm
09:30 PM 30.4°F-0.9°C 23.0°F-5.0°C 78% 4.6 mph N7.4 kmh N 8.1 mph13.0 kmh 29.56 in1001.0 mb 0.00 in0.0 mm 0.00 in0.0 mm 0.24 in6.1 mm
09:35 PM 30.4°F-0.9°C 23.0°F-5.0°C 78% 4.6 mph N7.4 kmh N 8.1 mph13.0 kmh 29.56 in1001.0 mb 0.00 in0.0 mm 0.00 in0.0 mm 0.24 in6.1 mm
09:40 PM 30.2°F-1.0°C 23.0°F-5.0°C 77% 4.1 mph N6.6 kmh N 6.3 mph10.1 kmh 29.56 in1001.0 mb 0.00 in0.0 mm 0.00 in0.0 mm 0.24 in6.1 mm
09:45 PM 30.0°F-1.1°C 23.0°F-5.0°C 77% 3.7 mph N6.0 kmh N 6.3 mph10.1 kmh 29.56 in1001.0 mb 0.00 in0.0 mm 0.00 in0.0 mm 0.24 in6.1 mm
09:50 PM 30.2°F-1.0°C 23.0°F-5.0°C 77% 2.8 mph NNW4.5 kmh NNW 4.3 mph6.9 kmh 29.56 in1001.0 mb 0.00 in0.0 mm 0.00 in0.0 mm 0.24 in6.1 mm
09:55 PM 30.0°F-1.1°C 23.0°F-5.0°C 77% 2.2 mph NW3.5 kmh NW 5.6 mph9.0 kmh 29.56 in1001.0 mb 0.00 in0.0 mm 0.00 in0.0 mm 0.24 in6.1 mm
10:00 PM 29.7°F-1.3°C 23.0°F-5.0°C 77% 2.2 mph NW3.5 kmh NW 5.6 mph9.0 kmh 29.59 in1002.0 mb 0.00 in0.0 mm 0.00 in0.0 mm 0.24 in6.1 mm
10:05 PM 29.7°F-1.3°C 23.0°F-5.0°C 77% 1.9 mph W3.1 kmh W 3.6 mph5.8 kmh 29.59 in1002.0 mb 0.00 in0.0 mm 0.00 in0.0 mm 0.24 in6.1 mm
10:10 PM 29.7°F-1.3°C 23.0°F-5.0°C 77% 2.1 mph WSW3.4 kmh WSW 3.4 mph5.5 kmh 29.59 in1002.0 mb 0.00 in0.0 mm 0.00 in0.0 mm 0.24 in6.1 mm
10:15 PM 29.3°F-1.5°C 21.2°F-6.0°C 77% 1.8 mph WSW2.9 kmh WSW 3.1 mph5.0 kmh 29.56 in1001.0 mb 0.00 in0.0 mm 0.00 in0.0 mm 0.24 in6.1 mm
10:20 PM 28.6°F-1.9°C 21.2°F-6.0°C 77% 0.7 mph SW1.1 kmh SW 3.1 mph5.0 kmh 29.56 in1001.0 mb 0.00 in0.0 mm 0.00 in0.0 mm 0.24 in6.1 mm
10:25 PM 28.4°F-2.0°C 21.2°F-6.0°C 77% 1.2 mph SW1.9 kmh SW 2.9 mph4.7 kmh 29.56 in1001.0 mb 0.00 in0.0 mm 0.00 in0.0 mm 0.24 in6.1 mm
10:30 PM 28.4°F-2.0°C 21.2°F-6.0°C 77% 2.1 mph SW3.4 kmh SW 3.4 mph5.5 kmh 29.59 in1002.0 mb 0.00 in0.0 mm 0.00 in0.0 mm 0.24 in6.1 mm
10:35 PM 28.2°F-2.1°C 21.2°F-6.0°C 77% 2.0 mph WSW3.2 kmh WSW 3.4 mph5.5 kmh 29.59 in1002.0 mb 0.00 in0.0 mm 0.00 in0.0 mm 0.24 in6.1 mm
10:40 PM 28.0°F-2.2°C 21.2°F-6.0°C 77% 1.7 mph WSW2.7 kmh WSW 2.7 mph4.3 kmh 29.59 in1002.0 mb 0.00 in0.0 mm 0.00 in0.0 mm 0.24 in6.1 mm
10:45 PM 28.0°F-2.2°C 21.2°F-6.0°C 77% 1.5 mph WSW2.4 kmh WSW 2.9 mph4.7 kmh 29.59 in1002.0 mb 0.00 in0.0 mm 0.00 in0.0 mm 0.24 in6.1 mm
10:50 PM 27.9°F-2.3°C 21.2°F-6.0°C 77% 2.0 mph WSW3.2 kmh WSW 4.0 mph6.4 kmh 29.59 in1002.0 mb 0.00 in0.0 mm 0.00 in0.0 mm 0.24 in6.1 mm
10:55 PM 27.9°F-2.3°C 21.2°F-6.0°C 77% 2.3 mph WSW3.7 kmh WSW 4.0 mph6.4 kmh 29.59 in1002.0 mb 0.00 in0.0 mm 0.00 in0.0 mm 0.24 in6.1 mm
11:00 PM 27.9°F-2.3°C 21.2°F-6.0°C 77% 2.2 mph WSW3.5 kmh WSW 3.4 mph5.5 kmh 29.59 in1002.0 mb 0.00 in0.0 mm 0.00 in0.0 mm 0.24 in6.1 mm
11:05 PM 27.7°F-2.4°C 21.2°F-6.0°C 77% 1.9 mph WSW3.1 kmh WSW 2.9 mph4.7 kmh 29.59 in1002.0 mb 0.00 in0.0 mm 0.00 in0.0 mm 0.24 in6.1 mm
11:10 PM 27.9°F-2.3°C 21.2°F-6.0°C 77% 2.0 mph WSW3.2 kmh WSW 2.7 mph4.3 kmh 29.59 in1002.0 mb 0.00 in0.0 mm 0.00 in0.0 mm 0.24 in6.1 mm
11:15 PM 27.5°F-2.5°C 19.4°F-7.0°C 77% 1.6 mph WSW2.6 kmh WSW 2.7 mph4.3 kmh 29.59 in1002.0 mb 0.00 in0.0 mm 0.00 in0.0 mm 0.24 in6.1 mm
11:20 PM 27.3°F-2.6°C 19.4°F-7.0°C 77% 0.4 mph SW0.6 kmh SW 2.2 mph3.5 kmh 29.59 in1002.0 mb 0.00 in0.0 mm 0.00 in0.0 mm 0.24 in6.1 mm
11:25 PM 27.0°F-2.8°C 19.4°F-7.0°C 77% Calm Calm -- 29.59 in1002.0 mb 0.00 in0.0 mm 0.00 in0.0 mm 0.24 in6.1 mm
11:30 PM 26.8°F-2.9°C 19.4°F-7.0°C 77% Calm Calm -- 29.59 in1002.0 mb 0.00 in0.0 mm 0.00 in0.0 mm 0.24 in6.1 mm
11:35 PM 26.8°F-2.9°C 19.4°F-7.0°C 77% Calm Calm -- 29.59 in1002.0 mb 0.00 in0.0 mm 0.00 in0.0 mm 0.24 in6.1 mm
11:40 PM 26.4°F-3.1°C 19.4°F-7.0°C 77% 0.5 mph S0.8 kmh S 2.2 mph3.5 kmh 29.59 in1002.0 mb 0.00 in0.0 mm 0.00 in0.0 mm 0.24 in6.1 mm
11:45 PM 26.6°F-3.0°C 19.4°F-7.0°C 77% 0.8 mph S1.3 kmh S 2.2 mph3.5 kmh 29.59 in1002.0 mb 0.00 in0.0 mm 0.00 in0.0 mm 0.24 in6.1 mm
11:50 PM 26.6°F-3.0°C 19.4°F-7.0°C 77% 0.6 mph S1.0 kmh S 2.2 mph3.5 kmh 29.62 in1003.0 mb 0.00 in0.0 mm 0.00 in0.0 mm 0.24 in6.1 mm
11:55 PM 26.2°F-3.2°C 19.4°F-7.0°C 77% 0.5 mph S0.8 kmh S 2.0 mph3.2 kmh 29.62 in1003.0 mb 0.00 in0.0 mm 0.00 in0.0 mm 0.24 in6.1 mm